Terminal Aerodrome Forecast
Issued by NWS

Home | Current Version | Previous Version | Text Only | Print | Product List | Glossary On
Versions: 1 2 3 4 5 6 7 8 9 10 11 12 13 14 15 16 17 18 19 20 21 22 23
000
FTUS41 KBGM 200800 AAA
TAFITH
TAF AMD
KITH 200844Z 2009/2106 10004KT P6SM SCT035 OVC120
      TEMPO 2009/2012 BKN035
     FM201300 18010KT P6SM OVC100
     FM202300 16006KT P6SM OVC050 PROB30 2102/2106 5SM -SHRA BR=

USA.gov is the U.S. government's official web portal to all federal, state and local government web resources and services.